createdAt,value
2018-08-04T00:01:03.187Z,3.60
2018-08-04T00:03:31.842Z,3.27
2018-08-04T00:06:00.346Z,3.80
2018-08-04T00:08:33.469Z,3.80
2018-08-04T00:11:02.103Z,3.62
2018-08-04T00:13:31.262Z,3.45
2018-08-04T00:15:59.900Z,3.40
2018-08-04T00:18:28.521Z,3.52
2018-08-04T00:20:59.358Z,3.20
2018-08-04T00:23:27.819Z,3.25
2018-08-04T00:25:56.578Z,2.92
2018-08-04T00:28:25.763Z,3.12
2018-08-04T00:30:54.286Z,3.23
2018-08-04T00:33:24.476Z,3.55
2018-08-04T00:35:53.837Z,3.72
2018-08-04T00:38:22.886Z,3.40
2018-08-04T00:40:51.444Z,3.83
2018-08-04T00:43:21.057Z,3.42
2018-08-04T00:45:50.213Z,3.40
2018-08-04T00:48:18.834Z,3.15
2018-08-04T00:50:48.307Z,3.72
2018-08-04T00:53:16.843Z,2.98
2018-08-04T00:55:45.919Z,3.33
2018-08-04T00:58:14.349Z,3.08
2018-08-04T01:00:42.866Z,3.08
2018-08-04T01:03:12.043Z,3.08
2018-08-04T01:05:40.651Z,3.27
2018-08-04T01:08:09.908Z,2.70
2018-08-04T01:10:40.243Z,3.30
2018-08-04T01:13:09.905Z,2.70
2018-08-04T01:15:39.193Z,3.35
2018-08-04T01:18:07.729Z,4.28
2018-08-04T01:20:37.168Z,3.33
2018-08-04T01:23:06.581Z,2.95
2018-08-04T01:25:36.319Z,4.87
2018-08-04T01:28:05.085Z,4.42
2018-08-04T01:30:34.508Z,2.80
2018-08-04T01:33:03.245Z,2.67
2018-08-04T01:35:32.693Z,3.25
2018-08-04T01:38:01.402Z,2.62
2018-08-04T01:40:30.863Z,2.42
2018-08-04T01:42:59.385Z,2.47
2018-08-04T01:45:27.948Z,2.17
2018-08-04T01:47:56.546Z,2.85
2018-08-04T01:50:27.807Z,2.35
2018-08-04T01:52:57.730Z,2.25
2018-08-04T01:55:27.309Z,2.65
2018-08-04T01:57:56.573Z,2.23
2018-08-04T02:00:27.572Z,2.50
2018-08-04T02:02:56.040Z,2.42
2018-08-04T02:05:24.569Z,2.62
2018-08-04T02:07:53.188Z,4.03
2018-08-04T02:10:21.773Z,2.55
2018-08-04T02:12:51.321Z,2.57
2018-08-04T02:15:20.007Z,2.45
2018-08-04T02:17:51.484Z,2.50
2018-08-04T02:20:21.028Z,2.47
2018-08-04T02:22:50.392Z,2.80
2018-08-04T02:25:19.843Z,2.55
2018-08-04T02:27:49.093Z,2.63
2018-08-04T02:30:17.673Z,2.65
2018-08-04T02:32:46.530Z,2.30
2018-08-04T02:35:15.859Z,3.22
2018-08-04T02:37:44.517Z,2.58
2018-08-04T02:40:14.004Z,2.40
2018-08-04T02:42:43.371Z,3.25
2018-08-04T02:45:13.593Z,2.90
2018-08-04T02:47:42.362Z,2.72
2018-08-04T02:50:10.850Z,2.40
2018-08-04T02:52:39.281Z,2.65
2018-08-04T02:55:08.099Z,3.37
2018-08-04T02:57:37.157Z,2.50
2018-08-04T03:00:07.293Z,2.62
2018-08-04T03:02:35.817Z,2.65
2018-08-04T03:05:05.014Z,2.90
2018-08-04T03:07:34.160Z,2.62
2018-08-04T03:10:05.366Z,2.83
2018-08-04T03:12:34.964Z,2.62
2018-08-04T03:15:03.551Z,2.72
2018-08-04T03:17:34.207Z,2.40
2018-08-04T03:20:02.759Z,2.80
2018-08-04T03:22:32.033Z,2.60
2018-08-04T03:25:00.636Z,2.77
2018-08-04T03:27:29.281Z,2.60
2018-08-04T03:29:57.933Z,2.85
2018-08-04T03:32:26.713Z,3.45
2018-08-04T03:34:55.237Z,3.52
2018-08-04T03:37:24.306Z,2.42
2018-08-04T03:39:53.629Z,3.00
2018-08-04T03:42:23.184Z,3.25
2018-08-04T03:44:51.790Z,2.45
2018-08-04T03:47:20.598Z,2.75
2018-08-04T03:49:53.645Z,3.35
2018-08-04T03:52:22.101Z,3.00
2018-08-04T03:54:50.589Z,3.30
2018-08-04T03:57:24.387Z,2.50
2018-08-04T03:59:53.522Z,4.42
2018-08-04T04:02:22.321Z,3.35
2018-08-04T04:04:51.029Z,3.37
2018-08-04T04:07:20.706Z,2.90
2018-08-04T04:09:50.430Z,3.20
2018-08-04T04:12:20.131Z,2.80
2018-08-04T04:14:48.675Z,3.50
2018-08-04T04:17:18.959Z,3.52
2018-08-04T04:19:47.787Z,2.83
2018-08-04T04:22:16.307Z,2.95
2018-08-04T04:24:46.351Z,3.17
2018-08-04T04:27:15.805Z,2.70
2018-08-04T04:29:44.954Z,3.08
2018-08-04T04:32:13.360Z,2.92
2018-08-04T04:34:43.553Z,2.65
2018-08-04T04:37:12.087Z,2.67
2018-08-04T04:39:42.761Z,2.92
2018-08-04T04:42:12.348Z,2.65
2018-08-04T04:44:41.089Z,2.85
2018-08-04T04:47:09.644Z,3.35
2018-08-04T04:49:41.855Z,3.08
2018-08-04T04:52:10.913Z,3.22
2018-08-04T04:54:40.974Z,4.50
2018-08-04T04:57:11.093Z,4.33
2018-08-04T04:59:43.248Z,4.45
2018-08-04T05:02:11.778Z,4.90
2018-08-04T05:04:42.044Z,3.83
2018-08-04T05:07:12.262Z,3.80
2018-08-04T05:09:40.823Z,4.10
2018-08-04T05:12:11.527Z,3.70
2018-08-04T05:14:40.776Z,4.20
2018-08-04T05:17:10.205Z,3.17
2018-08-04T05:19:39.229Z,6.05
2018-08-04T05:22:07.869Z,3.65
2018-08-04T05:24:36.594Z,3.55
2018-08-04T05:27:06.668Z,3.98
2018-08-04T05:29:35.344Z,4.92
2018-08-04T05:32:04.292Z,4.40
2018-08-04T05:34:35.155Z,4.12
2018-08-04T05:37:05.869Z,3.62
2018-08-04T05:39:34.361Z,4.30
2018-08-04T05:42:03.825Z,3.90
2018-08-04T05:44:34.309Z,3.80
2018-08-04T05:47:03.696Z,3.70
2018-08-04T05:49:33.506Z,3.85
2018-08-04T05:52:02.622Z,4.10
2018-08-04T05:54:32.380Z,4.47
2018-08-04T05:57:03.065Z,4.35
2018-08-04T05:59:31.860Z,3.98
2018-08-04T06:02:00.385Z,5.03
2018-08-04T06:04:29.220Z,4.08
2018-08-04T06:06:58.962Z,4.43
2018-08-04T06:09:29.308Z,4.50
2018-08-04T06:11:58.305Z,4.47
2018-08-04T06:14:27.596Z,4.50
2018-08-04T06:16:57.610Z,4.42
2018-08-04T06:19:27.215Z,4.42
2018-08-04T06:21:57.595Z,4.40
2018-08-04T06:24:26.981Z,4.20
2018-08-04T06:26:55.439Z,4.17
2018-08-04T06:29:25.093Z,4.35
2018-08-04T06:31:54.946Z,4.67
2018-08-04T06:34:23.645Z,4.20
2018-08-04T06:36:53.128Z,4.43
2018-08-04T06:39:24.635Z,3.77
2018-08-04T06:41:53.301Z,4.05
2018-08-04T06:44:23.863Z,4.37
2018-08-04T06:46:53.169Z,4.22
2018-08-04T06:49:24.583Z,5.00
2018-08-04T06:51:54.037Z,4.73
2018-08-04T06:54:23.472Z,4.10
2018-08-04T06:56:54.889Z,3.98
2018-08-04T06:59:23.653Z,4.08
2018-08-04T07:01:52.145Z,4.90
2018-08-04T07:04:20.650Z,6.25
2018-08-04T07:06:49.616Z,5.87
2018-08-04T07:09:18.983Z,4.67
2018-08-04T07:11:47.838Z,4.50
2018-08-04T07:14:16.571Z,4.25
2018-08-04T07:16:45.733Z,5.10
2018-08-04T07:19:14.675Z,4.12
2018-08-04T07:21:43.045Z,4.67
2018-08-04T07:24:12.406Z,5.62
2018-08-04T07:26:42.594Z,5.10
2018-08-04T07:29:11.756Z,6.15
2018-08-04T07:31:42.647Z,5.40
2018-08-04T07:34:12.011Z,4.50
2018-08-04T07:36:41.924Z,6.42
2018-08-04T07:39:11.730Z,6.20
2018-08-04T07:41:40.482Z,5.45
2018-08-04T07:44:09.498Z,5.37
2018-08-04T07:46:38.174Z,5.55
2018-08-04T07:49:07.066Z,7.78
2018-08-04T07:51:36.238Z,7.17
2018-08-04T07:54:06.970Z,7.15
2018-08-04T07:56:36.561Z,7.05
2018-08-04T07:59:05.287Z,7.47
2018-08-04T08:01:33.917Z,6.37
2018-08-04T08:04:02.576Z,8.20
2018-08-04T08:06:31.953Z,6.50
2018-08-04T08:09:01.080Z,7.95
2018-08-04T08:11:30.584Z,7.33
2018-08-04T08:13:59.167Z,6.33
2018-08-04T08:16:27.653Z,6.17
2018-08-04T08:18:56.637Z,5.40
2018-08-04T08:21:27.288Z,6.70
2018-08-04T08:23:57.010Z,4.70
2018-08-04T08:26:26.219Z,4.67
2018-08-04T08:28:56.445Z,4.75
2018-08-04T08:31:25.896Z,4.00
2018-08-04T08:33:56.033Z,4.23
2018-08-04T08:36:25.789Z,4.83
2018-08-04T08:38:54.309Z,4.62
2018-08-04T08:41:24.177Z,3.83
2018-08-04T08:43:53.573Z,5.40
2018-08-04T08:46:23.497Z,5.53
2018-08-04T08:48:55.706Z,4.27
2018-08-04T08:51:24.448Z,4.85
2018-08-04T08:53:53.917Z,3.90
2018-08-04T08:56:23.048Z,5.42
2018-08-04T08:58:52.108Z,3.83
2018-08-04T09:01:21.067Z,3.98
2018-08-04T09:03:49.729Z,4.47
2018-08-04T09:06:19.595Z,3.85
2018-08-04T09:08:49.000Z,3.70
2018-08-04T09:11:17.615Z,3.62
2018-08-04T09:13:47.376Z,4.37
2018-08-04T09:16:16.120Z,3.47
2018-08-04T09:18:44.698Z,4.10
2018-08-04T09:21:14.467Z,4.17
2018-08-04T09:23:44.244Z,3.70
2018-08-04T09:26:13.090Z,4.00
2018-08-04T09:28:41.717Z,4.25
2018-08-04T09:31:10.857Z,3.22
2018-08-04T09:33:39.672Z,3.40
2018-08-04T09:36:08.310Z,3.60
2018-08-04T09:38:37.362Z,3.77
2018-08-04T09:41:06.709Z,3.60
2018-08-04T09:43:35.701Z,3.55
2018-08-04T09:46:04.619Z,4.22
2018-08-04T09:48:33.492Z,3.95
2018-08-04T09:51:03.099Z,3.77
2018-08-04T09:53:32.188Z,4.30
2018-08-04T09:56:01.682Z,3.27
2018-08-04T09:58:30.233Z,4.35
2018-08-04T10:01:03.898Z,3.43
2018-08-04T10:03:32.890Z,3.33
2018-08-04T10:06:02.486Z,4.90
2018-08-04T10:08:32.119Z,7.65
2018-08-04T10:11:00.692Z,3.35
2018-08-04T10:13:29.311Z,4.70
2018-08-04T10:15:58.135Z,4.53
2018-08-04T10:18:28.837Z,4.55
2018-08-04T10:20:57.294Z,5.58
2018-08-04T10:23:26.456Z,5.03
2018-08-04T10:25:55.141Z,4.80
2018-08-04T10:28:24.285Z,4.90
2018-08-04T10:30:52.802Z,4.10
2018-08-04T10:33:22.262Z,4.75
2018-08-04T10:35:51.865Z,4.08
2018-08-04T10:38:20.561Z,4.40
2018-08-04T10:40:49.146Z,4.40
2018-08-04T10:43:17.677Z,4.80
2018-08-04T10:45:46.611Z,4.83
2018-08-04T10:48:15.871Z,4.20
2018-08-04T10:50:44.557Z,4.25
2018-08-04T10:53:14.368Z,3.70
2018-08-04T10:55:42.870Z,3.30
2018-08-04T10:58:11.631Z,4.28
2018-08-04T11:00:40.097Z,3.30
2018-08-04T11:03:09.054Z,3.52
2018-08-04T11:05:37.786Z,3.67
2018-08-04T11:08:08.030Z,3.87
2018-08-04T11:10:36.534Z,3.67
2018-08-04T11:13:05.328Z,3.60
2018-08-04T11:15:33.881Z,3.42
2018-08-04T11:18:03.530Z,3.62
2018-08-04T11:20:32.598Z,3.35
2018-08-04T11:23:01.658Z,3.20
2018-08-04T11:25:30.978Z,3.10
2018-08-04T11:27:59.630Z,3.53
2018-08-04T11:30:28.795Z,2.50
2018-08-04T11:32:58.168Z,3.10
2018-08-04T11:35:26.830Z,3.22
2018-08-04T11:37:55.333Z,2.70
2018-08-04T11:40:24.125Z,3.10
2018-08-04T11:42:53.544Z,3.00
2018-08-04T11:45:23.007Z,2.60
2018-08-04T11:47:51.667Z,2.87
2018-08-04T11:50:20.628Z,2.90
2018-08-04T11:52:49.133Z,3.10
2018-08-04T11:55:17.616Z,2.60
2018-08-04T11:57:47.145Z,3.35
2018-08-04T12:00:16.825Z,2.80
2018-08-04T12:02:46.256Z,3.22
2018-08-04T12:05:16.209Z,3.10
2018-08-04T12:07:44.766Z,3.15
2018-08-04T12:10:13.512Z,3.15
2018-08-04T12:12:43.271Z,2.88
2018-08-04T12:15:13.757Z,2.70
2018-08-04T12:17:44.311Z,2.55
2018-08-04T12:20:14.229Z,2.22
2018-08-04T12:22:42.792Z,2.40
2018-08-04T12:25:11.444Z,2.45
2018-08-04T12:27:40.305Z,2.00
2018-08-04T12:30:10.131Z,2.22
2018-08-04T12:32:40.042Z,2.20
2018-08-04T12:35:09.951Z,2.20
2018-08-04T12:37:38.831Z,2.17
2018-08-04T12:40:08.205Z,2.90
2018-08-04T12:42:38.042Z,2.25
2018-08-04T12:45:07.349Z,2.33
2018-08-04T12:47:36.670Z,2.33
2018-08-04T12:50:05.577Z,2.12
2018-08-04T12:52:36.087Z,3.17
2018-08-04T12:55:04.720Z,2.67
2018-08-04T12:57:35.500Z,2.20
2018-08-04T13:00:05.787Z,2.30
2018-08-04T13:02:34.328Z,2.30
2018-08-04T13:05:02.804Z,2.40
2018-08-04T13:07:31.498Z,2.55
2018-08-04T13:10:00.019Z,2.27
2018-08-04T13:12:30.747Z,2.22
2018-08-04T13:14:59.596Z,2.20
2018-08-04T13:17:29.335Z,2.20
2018-08-04T13:19:58.172Z,2.08
2018-08-04T13:22:27.597Z,2.35
2018-08-04T13:24:56.313Z,2.17
2018-08-04T13:27:25.219Z,2.30
2018-08-04T13:29:53.896Z,2.40
2018-08-04T13:32:22.480Z,2.52
2018-08-04T13:34:50.929Z,2.30
2018-08-04T13:37:19.463Z,2.10
2018-08-04T13:39:48.054Z,2.23
2018-08-04T13:42:16.559Z,2.45
2018-08-04T13:44:45.089Z,2.00
2018-08-04T13:47:13.588Z,2.00
2018-08-04T13:49:42.309Z,2.02
2018-08-04T13:52:11.780Z,2.40
2018-08-04T13:54:40.485Z,2.02
2018-08-04T13:57:11.628Z,2.05
2018-08-04T13:59:41.206Z,2.08
2018-08-04T14:02:10.529Z,2.17
2018-08-04T14:04:39.300Z,2.60
2018-08-04T14:07:07.950Z,2.25
2018-08-04T14:09:39.567Z,2.30
2018-08-04T14:12:09.622Z,2.02
2018-08-04T14:14:38.920Z,2.37
2018-08-04T14:17:07.818Z,2.50
2018-08-04T14:19:38.572Z,2.00
2018-08-04T14:22:07.249Z,2.12
2018-08-04T14:24:36.054Z,2.00
2018-08-04T14:27:05.959Z,1.92
2018-08-04T14:29:34.629Z,1.80
2018-08-04T14:32:03.755Z,1.70
2018-08-04T14:34:32.308Z,1.80
2018-08-04T14:37:02.568Z,1.85
2018-08-04T14:39:31.954Z,2.00
2018-08-04T14:42:00.997Z,1.80
2018-08-04T14:44:29.511Z,2.70
2018-08-04T14:46:58.805Z,1.90
2018-08-04T14:49:28.308Z,2.17
2018-08-04T14:51:57.405Z,1.90
2018-08-04T14:54:27.245Z,2.62
2018-08-04T14:56:57.280Z,2.02
2018-08-04T14:59:27.520Z,1.95
2018-08-04T15:01:56.032Z,1.92
2018-08-04T15:04:24.755Z,2.50
2018-08-04T15:06:53.485Z,2.23
2018-08-04T15:09:21.988Z,2.08
2018-08-04T15:11:51.396Z,2.05
2018-08-04T15:14:22.035Z,2.13
2018-08-04T15:16:50.509Z,1.80
2018-08-04T15:19:20.685Z,2.00
2018-08-04T15:21:51.567Z,2.07
2018-08-04T15:24:20.864Z,2.45
2018-08-04T15:26:52.578Z,2.58
2018-08-04T15:29:24.624Z,2.00
2018-08-04T15:31:56.625Z,1.95
2018-08-04T15:34:25.649Z,2.00
2018-08-04T15:36:56.155Z,2.17
2018-08-04T15:39:25.294Z,2.00
2018-08-04T15:41:54.351Z,2.02
2018-08-04T15:44:24.620Z,2.30
2018-08-04T15:46:54.843Z,2.12
2018-08-04T15:49:25.596Z,2.05
2018-08-04T15:51:58.596Z,1.80
2018-08-04T15:54:28.703Z,1.80
2018-08-04T15:56:59.065Z,2.02
2018-08-04T15:59:30.026Z,1.72
2018-08-04T16:01:58.596Z,2.27
2018-08-04T16:04:28.173Z,4.00
2018-08-04T16:07:04.435Z,2.50
2018-08-04T16:09:34.737Z,2.35
2018-08-04T16:12:05.929Z,2.00
2018-08-04T16:14:35.225Z,2.05
2018-08-04T16:17:05.168Z,2.00
2018-08-04T16:19:34.098Z,2.35
2018-08-04T16:22:04.863Z,1.95
2018-08-04T16:24:34.774Z,1.90
2018-08-04T16:27:03.489Z,1.77
2018-08-04T16:29:33.229Z,1.77
2018-08-04T16:32:04.746Z,2.00
2018-08-04T16:34:33.941Z,2.02
2018-08-04T16:37:03.177Z,2.17
2018-08-04T16:39:33.252Z,1.70
2018-08-04T16:42:03.529Z,2.83
2018-08-04T16:44:33.018Z,1.90
2018-08-04T16:47:01.670Z,2.08
2018-08-04T16:49:32.624Z,1.87
2018-08-04T16:52:02.237Z,2.10
2018-08-04T16:54:30.847Z,2.10
2018-08-04T16:57:00.035Z,2.52
2018-08-04T16:59:28.591Z,2.40
2018-08-04T17:01:57.064Z,2.30
2018-08-04T17:04:26.060Z,2.58
2018-08-04T17:06:54.684Z,3.37
2018-08-04T17:09:24.267Z,2.17
2018-08-04T17:11:52.928Z,2.70
2018-08-04T17:14:23.783Z,3.95
2018-08-04T17:16:54.053Z,2.52
2018-08-04T17:19:23.437Z,2.37
2018-08-04T17:21:52.320Z,2.50
2018-08-04T17:24:22.456Z,2.22
2018-08-04T17:26:51.311Z,2.85
2018-08-04T17:29:21.968Z,2.50
2018-08-04T17:31:51.138Z,2.37
2018-08-04T17:34:19.827Z,2.55
2018-08-04T17:36:48.522Z,2.27
2018-08-04T17:39:20.428Z,2.58
2018-08-04T17:41:51.037Z,2.33
2018-08-04T17:44:22.621Z,3.08
2018-08-04T17:46:51.840Z,3.02
2018-08-04T17:49:20.546Z,2.87
2018-08-04T17:51:49.684Z,3.10
2018-08-04T17:54:21.308Z,3.02
2018-08-04T17:56:50.489Z,2.77
2018-08-04T17:59:20.620Z,2.67
2018-08-04T18:01:50.043Z,2.33
2018-08-04T18:04:18.895Z,2.35
2018-08-04T18:06:48.804Z,2.20
2018-08-04T18:09:17.645Z,2.60
2018-08-04T18:11:46.137Z,3.02
2018-08-04T18:14:14.732Z,3.30
2018-08-04T18:16:43.639Z,3.63
2018-08-04T18:19:13.123Z,3.00
2018-08-04T18:21:43.088Z,2.98
2018-08-04T18:24:11.596Z,4.47
2018-08-04T18:26:40.339Z,5.95
2018-08-04T18:29:11.869Z,3.95
2018-08-04T18:31:41.185Z,2.80
2018-08-04T18:34:09.859Z,2.72
2018-08-04T18:36:38.548Z,3.00
2018-08-04T18:39:08.461Z,2.37
2018-08-04T18:41:37.006Z,2.62
2018-08-04T18:44:05.625Z,2.67
2018-08-04T18:46:34.635Z,2.70
2018-08-04T18:49:03.277Z,2.77
2018-08-04T18:51:32.049Z,2.72
2018-08-04T18:54:01.445Z,3.00
2018-08-04T18:56:29.983Z,3.33
2018-08-04T18:58:59.287Z,3.17
2018-08-04T19:01:27.866Z,2.70
2018-08-04T19:03:56.723Z,2.50
2018-08-04T19:06:25.234Z,2.83
2018-08-04T19:08:54.365Z,2.62
2018-08-04T19:11:23.286Z,2.40
2018-08-04T19:13:52.432Z,2.62
2018-08-04T19:16:21.204Z,2.45
2018-08-04T19:18:49.976Z,2.77
2018-08-04T19:21:18.975Z,3.05
2018-08-04T19:23:47.565Z,2.60
2018-08-04T19:26:16.238Z,3.08
2018-08-04T19:28:45.263Z,2.80
2018-08-04T19:31:13.745Z,4.03
2018-08-04T19:33:43.418Z,3.35
2018-08-04T19:36:12.122Z,3.25
2018-08-04T19:38:40.631Z,2.65
2018-08-04T19:41:09.225Z,2.90
2018-08-04T19:43:38.301Z,2.77
2018-08-04T19:46:07.499Z,2.77
2018-08-04T19:48:36.197Z,2.65
2018-08-04T19:51:04.728Z,2.72
2018-08-04T19:53:33.592Z,2.90
2018-08-04T19:56:02.179Z,2.65
2018-08-04T19:58:32.290Z,2.80
2018-08-04T20:01:00.795Z,2.80
2018-08-04T20:03:30.136Z,2.40
2018-08-04T20:06:01.174Z,2.77
2018-08-04T20:08:31.394Z,3.05
2018-08-04T20:11:02.922Z,2.72
2018-08-04T20:13:31.777Z,2.80
2018-08-04T20:16:01.215Z,2.60
2018-08-04T20:18:29.746Z,2.75
2018-08-04T20:20:58.346Z,2.60
2018-08-04T20:23:26.912Z,2.77
2018-08-04T20:25:55.468Z,2.72
2018-08-04T20:28:24.167Z,2.75
2018-08-04T20:30:52.678Z,3.63
2018-08-04T20:33:21.334Z,2.90
2018-08-04T20:35:50.904Z,2.80
2018-08-04T20:38:20.297Z,2.33
2018-08-04T20:40:48.909Z,2.12
2018-08-04T20:43:18.080Z,2.30
2018-08-04T20:45:47.520Z,2.25
2018-08-04T20:48:16.750Z,2.62
2018-08-04T20:50:45.740Z,2.37
2018-08-04T20:53:14.492Z,2.27
2018-08-04T20:55:43.138Z,2.50
2018-08-04T20:58:12.563Z,2.57
2018-08-04T21:00:43.117Z,2.20
2018-08-04T21:03:12.796Z,2.37
2018-08-04T21:05:42.109Z,2.55
2018-08-04T21:08:10.897Z,2.00
2018-08-04T21:10:39.585Z,2.70
2018-08-04T21:13:09.385Z,2.35
2018-08-04T21:15:38.953Z,2.30
2018-08-04T21:18:08.116Z,1.92
2018-08-04T21:20:37.387Z,2.33
2018-08-04T21:23:06.402Z,1.90
2018-08-04T21:25:36.949Z,2.15
2018-08-04T21:28:06.017Z,1.75
2018-08-04T21:30:35.049Z,2.65
2018-08-04T21:33:03.690Z,2.87
2018-08-04T21:35:32.453Z,2.20
2018-08-04T21:38:01.168Z,2.22
2018-08-04T21:40:30.460Z,2.37
2018-08-04T21:42:59.065Z,2.20
2018-08-04T21:45:27.516Z,2.40
2018-08-04T21:47:56.558Z,2.47
2018-08-04T21:50:25.946Z,2.47
2018-08-04T21:52:54.809Z,2.37
2018-08-04T21:55:23.411Z,1.90
2018-08-04T21:57:52.777Z,1.97
2018-08-04T22:00:21.321Z,1.82
2018-08-04T22:03:03.642Z,1.77
2018-08-04T22:05:32.220Z,2.35
2018-08-04T22:08:12.919Z,1.90
2018-08-04T22:10:42.531Z,2.20
2018-08-04T22:13:12.117Z,1.77
2018-08-04T22:15:44.684Z,2.42
2018-08-04T22:18:13.956Z,1.87
2018-08-04T22:20:45.070Z,2.10
2018-08-04T22:23:15.510Z,1.80
2018-08-04T22:25:44.185Z,1.77
2018-08-04T22:28:13.794Z,1.77
2018-08-04T22:30:44.908Z,1.88
2018-08-04T22:33:13.457Z,1.90
2018-08-04T22:35:43.610Z,1.80
2018-08-04T22:38:12.089Z,1.80
2018-08-04T22:40:40.616Z,1.70
2018-08-04T22:43:09.463Z,1.90
2018-08-04T22:46:14.346Z,2.40
2018-08-04T22:48:44.361Z,1.52
2018-08-04T22:51:12.898Z,1.80
2018-08-04T22:53:41.880Z,1.72
2018-08-04T22:56:10.587Z,1.72
2018-08-04T22:58:39.670Z,2.05
2018-08-04T23:01:08.273Z,1.32
2018-08-04T23:03:38.560Z,1.80
2018-08-04T23:06:07.260Z,1.60
2018-08-04T23:08:35.678Z,1.80
2018-08-04T23:11:04.245Z,1.87
2018-08-04T23:13:33.924Z,2.33
2018-08-04T23:16:02.799Z,2.17
2018-08-04T23:18:31.406Z,1.62
2018-08-04T23:20:59.880Z,1.80
2018-08-04T23:23:28.391Z,3.52
2018-08-04T23:25:57.227Z,1.57
2018-08-04T23:28:26.324Z,1.95
2018-08-04T23:30:56.386Z,2.05
2018-08-04T23:33:25.893Z,2.02
2018-08-04T23:35:55.033Z,2.15
2018-08-04T23:38:24.022Z,1.92
2018-08-04T23:40:52.512Z,2.25
2018-08-04T23:43:21.847Z,2.37
2018-08-04T23:45:50.987Z,1.77
2018-08-04T23:48:19.934Z,2.20
2018-08-04T23:50:51.653Z,3.52
2018-08-04T23:53:21.147Z,2.30
2018-08-04T23:55:52.414Z,2.42
2018-08-04T23:58:21.605Z,2.70
